Pagrindinis puslapis
METAR-TAF:

METAR-TAF

Oro uostai :

Tan Son Nhat oro uostas

Hošiminas, Vietnamas

platuma: 10-49N, ilguma: 106-40E, Aukštis: 19 m

Dabartinis oras

Ataskaita buvo paskelbta 48 minutes, ne 12:00 UTC
Vėjas 8 kt iš Pietų
Temperatūra 27°C
Drėgmė 79%
Slėgis 1006 hPa
Matomumas 10 km arba daugiau
nėra debesų žemiau 1500 m ir nėra kamuolinių lietaus debesų

METAR: VVTS 251200Z 18008KT CAVOK 27/23 Q1006 NOSIG

Laikas: 19:48 (12:48 UTC)

Prognozė

Ataskaita buvo paskelbta 1 valandą ir 48 minutes, ne 11:00 UTC
Prognozė galioja nuo 25 metu 12 UTC su 26 metu 18 UTC
Vėjas 10 kt iš Vakarų
Matomumas 10 km arba daugiau
Išsisklaidę debesys ne aukštis 2000 ft
Tapsmas
nuo 25 metu 16 UTC su 25 metu 18 UTC
Vėjas 3 kt nuo kintamojo kryptimis

TAF: VVTS 251100Z 2512/2618 26010KT 9999 SCT020 BECMG 2516/2518 VRB03KT

Orai ataskaitas ir orų prognozės (METAR, TAF).

turimą stotys yra geltonos ir raudonos taškus žemėlapyje.

Perkelti pele per norėdami pamatyti stoties vardą.

Tada spustelėkite, norėdami matyti oro stebėjimo ir prognozės.

Norėdami pakeisti žemėlapį: spustelėkite ant žalios mygtukų su juodo kryžiaus žemyn,; žalią mygtuką su brūkšneliu, jei norite nutolinti; arba žalių rodyklių gretimoms žemėlapius.


METAR-TAF: